Time;durP1;ratioP1;P1;durP2;ratioP2;P2;SDS_P1;SDS_P2;PMS_P1;PMS_P2;Temp;Humidity;BMP_temperature;BMP_pressure;BME280_temperature;BME280_humidity;BME280_pressure;Samples;Min_cycle;Max_cycle;Signal;HPM_P1;HPM_P2
2020/12/30 00:01:09;;;;;;;7.72;3.75;;;5.20;99.90;;;;;;5038370;28;20254;-79
2020/12/30 00:03:36;;;;;;;5.82;3.33;;;5.30;99.90;;;;;;5037855;28;20199;-78
2020/12/30 00:06:04;;;;;;;6.38;3.58;;;5.20;99.90;;;;;;5037757;28;20332;-79
2020/12/30 00:08:31;;;;;;;6.10;2.92;;;5.20;99.90;;;;;;5037282;28;20223;-79
2020/12/30 00:10:58;;;;;;;4.55;3.13;;;5.10;99.90;;;;;;5037709;28;20278;-78
2020/12/30 00:13:25;;;;;;;8.77;3.58;;;5.00;99.90;;;;;;5037735;28;20219;-79
2020/12/30 00:15:51;;;;;;;6.70;3.72;;;5.00;99.90;;;;;;5034361;28;20219;-78
2020/12/30 00:18:18;;;;;;;6.45;3.40;;;5.20;99.90;;;;;;5033196;28;20235;-78
2020/12/30 00:20:45;;;;;;;7.32;3.80;;;5.00;99.90;;;;;;5033379;28;20563;-77
2020/12/30 00:23:11;;;;;;;7.82;3.20;;;4.90;99.90;;;;;;5034025;28;20256;-77
2020/12/30 00:25:38;;;;;;;6.32;3.70;;;5.30;99.90;;;;;;5043756;28;20202;-77
2020/12/30 00:28:04;;;;;;;4.38;2.90;;;5.10;99.90;;;;;;5047722;28;20215;-79
2020/12/30 00:30:31;;;;;;;7.88;3.70;;;5.20;99.90;;;;;;5052079;28;20211;-78
2020/12/30 00:32:58;;;;;;;8.68;3.30;;;5.00;99.90;;;;;;5052276;28;20869;-78
2020/12/30 00:35:25;;;;;;;4.15;2.25;;;5.00;99.90;;;;;;5046699;28;20234;-78
2020/12/30 00:37:53;;;;;;;7.15;3.10;;;5.00;99.90;;;;;;5037081;28;20203;-79
2020/12/30 00:40:19;;;;;;;8.13;3.03;;;5.20;99.90;;;;;;5040862;28;20207;-78
2020/12/30 00:42:45;;;;;;;6.30;3.03;;;4.90;99.90;;;;;;5041206;28;20257;-77
2020/12/30 00:45:12;;;;;;;5.20;2.95;;;5.00;99.90;;;;;;5036891;28;20226;-78
2020/12/30 00:47:39;;;;;;;5.47;3.00;;;5.00;99.90;;;;;;5035248;28;20210;-78
2020/12/30 00:50:06;;;;;;;7.65;2.85;;;5.00;99.90;;;;;;5036562;28;20260;-78
2020/12/30 00:52:33;;;;;;;6.07;3.35;;;5.00;99.90;;;;;;5036672;28;20214;-79
2020/12/30 00:55:00;;;;;;;7.80;3.58;;;5.10;99.90;;;;;;5038891;28;20290;-79
2020/12/30 00:57:27;;;;;;;4.97;3.00;;;4.80;99.90;;;;;;5056682;28;20207;-79
2020/12/30 00:59:54;;;;;;;5.35;2.75;;;4.90;99.90;;;;;;5047956;28;20231;-79
2020/12/30 01:02:20;;;;;;;4.97;2.75;;;4.90;99.90;;;;;;5036725;28;20203;-78
2020/12/30 01:04:47;;;;;;;4.18;2.30;;;5.00;99.90;;;;;;5036478;28;20206;-79
2020/12/30 01:07:17;;;;;;;5.47;3.10;;;5.00;99.90;;;;;;5031480;28;20257;-80
2020/12/30 01:09:44;;;;;;;6.18;2.88;;;5.00;99.90;;;;;;5029513;28;20230;-78
2020/12/30 01:12:12;;;;;;;4.75;2.50;;;4.90;99.90;;;;;;5020528;28;20287;-80
2020/12/30 01:14:38;;;;;;;5.20;3.00;;;4.90;99.90;;;;;;5016675;28;20235;-79
2020/12/30 01:17:05;;;;;;;5.32;3.28;;;4.90;99.90;;;;;;5035430;28;20273;-79
2020/12/30 01:19:31;;;;;;;3.97;2.05;;;4.70;99.90;;;;;;5035695;28;20324;-79
2020/12/30 01:21:58;;;;;;;5.00;3.00;;;4.80;99.90;;;;;;5035481;28;20207;-79
2020/12/30 01:24:25;;;;;;;4.10;2.50;;;4.90;99.90;;;;;;5028494;28;20200;-79
2020/12/30 01:26:52;;;;;;;6.20;3.03;;;5.00;99.90;;;;;;5039480;28;20239;-78
2020/12/30 01:29:20;;;;;;;5.40;2.65;;;4.70;99.90;;;;;;5037702;28;20263;-76
2020/12/30 01:31:47;;;;;;;3.88;2.53;;;4.80;99.90;;;;;;5040202;28;20244;-81
2020/12/30 01:34:13;;;;;;;4.85;2.60;;;5.00;99.90;;;;;;5035983;28;20206;-81
2020/12/30 01:36:40;;;;;;;4.93;2.75;;;4.90;99.90;;;;;;5035868;28;20219;-80
2020/12/30 01:39:07;;;;;;;5.05;2.40;;;5.00;99.90;;;;;;5035928;28;20645;-80
2020/12/30 01:41:33;;;;;;;5.10;2.55;;;4.80;99.90;;;;;;5025854;28;20245;-79
2020/12/30 01:44:02;;;;;;;7.47;2.60;;;5.10;99.90;;;;;;5037744;28;20207;-80
2020/12/30 01:46:38;;;;;;;4.28;2.35;;;5.10;99.90;;;;;;5039781;28;20199;-80
2020/12/30 01:49:07;;;;;;;3.85;2.10;;;5.00;99.90;;;;;;5036688;28;20226;-80
2020/12/30 01:51:35;;;;;;;5.15;2.42;;;4.90;99.90;;;;;;5036199;28;20209;-80
2020/12/30 01:54:03;;;;;;;5.68;3.00;;;5.00;99.90;;;;;;5036033;28;20198;-81
2020/12/30 01:56:32;;;;;;;7.15;3.05;;;5.10;99.90;;;;;;5039034;28;20612;-81
2020/12/30 01:58:59;;;;;;;5.10;2.33;;;5.10;99.90;;;;;;5036124;28;20223;-80
2020/12/30 02:01:29;;;;;;;5.85;3.20;;;5.00;99.90;;;;;;5036305;28;20214;-81
2020/12/30 02:03:58;;;;;;;3.83;2.08;;;5.30;99.90;;;;;;5036192;28;20199;-79
2020/12/30 02:06:25;;;;;;;4.93;2.45;;;5.00;99.90;;;;;;5036371;28;20206;-80
2020/12/30 02:08:53;;;;;;;4.00;2.10;;;5.00;99.90;;;;;;5035605;28;20223;-79
2020/12/30 02:11:24;;;;;;;3.67;2.45;;;5.10;99.90;;;;;;5036513;28;20261;-80
2020/12/30 02:14:00;;;;;;;4.18;2.30;;;5.00;99.90;;;;;;5036813;28;20235;-78
2020/12/30 02:16:26;;;;;;;4.20;2.30;;;5.30;99.90;;;;;;5028776;28;20227;-79
2020/12/30 02:18:53;;;;;;;3.30;2.00;;;5.30;99.90;;;;;;5051867;22;20220;-82
2020/12/30 02:21:20;;;;;;;4.57;2.67;;;5.20;99.90;;;;;;5033591;28;20231;-82
2020/12/30 02:23:48;;;;;;;3.47;2.00;;;5.30;99.90;;;;;;5033859;28;20211;-81
2020/12/30 02:26:16;;;;;;;4.00;2.25;;;5.30;99.90;;;;;;5032444;28;20208;-82
2020/12/30 02:28:43;;;;;;;4.00;2.15;;;5.30;99.90;;;;;;5028225;28;20671;-81
2020/12/30 02:31:10;;;;;;;4.68;2.28;;;5.10;99.90;;;;;;5028709;28;20189;-82
2020/12/30 02:33:36;;;;;;;6.57;2.40;;;5.40;99.90;;;;;;5025297;28;20271;-80
2020/12/30 02:36:03;;;;;;;3.53;2.08;;;5.40;99.90;;;;;;5031930;28;20243;-80
2020/12/30 02:38:29;;;;;;;8.57;2.78;;;5.30;99.90;;;;;;5021461;28;20338;-80
2020/12/30 02:41:00;;;;;;;3.70;1.95;;;5.30;99.90;;;;;;5032954;28;20242;-81
2020/12/30 02:43:27;;;;;;;6.07;2.08;;;5.20;99.90;;;;;;5032373;28;20231;-80
2020/12/30 02:45:54;;;;;;;5.53;2.28;;;5.20;99.90;;;;;;5032251;28;20404;-80
2020/12/30 02:48:21;;;;;;;3.80;1.95;;;5.50;99.90;;;;;;5032094;28;20224;-80
2020/12/30 02:50:47;;;;;;;4.10;1.88;;;5.20;99.90;;;;;;5031548;28;20224;-80
2020/12/30 02:53:14;;;;;;;5.03;2.15;;;5.30;99.90;;;;;;5031638;28;20287;-81
2020/12/30 02:55:41;;;;;;;5.22;2.33;;;5.20;99.90;;;;;;5031942;28;20236;-81
2020/12/30 02:58:07;;;;;;;3.42;1.92;;;5.20;99.90;;;;;;5031980;28;20214;-81
2020/12/30 03:00:35;;;;;;;3.67;1.83;;;5.50;99.90;;;;;;5020395;28;20224;-81
2020/12/30 03:03:02;;;;;;;5.32;2.92;;;5.40;99.90;;;;;;5000904;28;20204;-81
2020/12/30 03:05:28;;;;;;;3.55;2.13;;;5.40;99.90;;;;;;5010433;28;20211;-81
2020/12/30 03:07:55;;;;;;;3.30;1.67;;;5.40;99.90;;;;;;5020853;28;20207;-82
2020/12/30 03:10:21;;;;;;;4.57;2.30;;;5.60;99.90;;;;;;5015225;28;20224;-82
2020/12/30 03:12:48;;;;;;;3.85;2.05;;;5.50;99.90;;;;;;5012261;28;20208;-81
2020/12/30 03:15:14;;;;;;;4.45;2.55;;;5.60;99.90;;;;;;5020588;28;20297;-84
2020/12/30 03:17:42;;;;;;;4.88;1.80;;;5.30;99.90;;;;;;5024566;28;20218;-82
2020/12/30 03:20:08;;;;;;;2.90;1.60;;;5.60;99.90;;;;;;5024250;28;20326;-81
2020/12/30 03:22:35;;;;;;;2.85;1.55;;;5.70;99.90;;;;;;5025660;28;20212;-82
2020/12/30 03:25:02;;;;;;;5.47;2.70;;;5.80;99.90;;;;;;5026617;28;20201;-81
2020/12/30 03:27:29;;;;;;;4.05;1.80;;;5.70;99.90;;;;;;5026676;28;20275;-82
2020/12/30 03:29:55;;;;;;;3.83;1.65;;;5.80;99.90;;;;;;5027568;28;20234;-82
2020/12/30 03:32:22;;;;;;;4.22;1.70;;;5.80;99.90;;;;;;5024239;28;20204;-82
2020/12/30 03:34:49;;;;;;;3.90;1.80;;;5.70;99.90;;;;;;5023225;28;20204;-82
2020/12/30 03:37:16;;;;;;;3.40;1.70;;;5.80;99.90;;;;;;5013876;28;20223;-82
2020/12/30 03:39:42;;;;;;;5.22;1.80;;;5.80;99.90;;;;;;5012157;28;20295;-82
2020/12/30 03:42:09;;;;;;;4.68;2.00;;;5.70;99.90;;;;;;5016315;28;20504;-82
2020/12/30 03:44:35;;;;;;;6.28;1.88;;;5.70;99.90;;;;;;5020792;28;20204;-83
2020/12/30 03:47:05;;;;;;;4.22;2.00;;;5.80;99.90;;;;;;5024897;28;20280;-82
2020/12/30 03:49:32;;;;;;;6.72;1.70;;;5.70;99.90;;;;;;5027461;28;20234;-82
2020/12/30 03:51:59;;;;;;;5.35;2.05;;;5.70;99.90;;;;;;5027759;28;20208;-82
2020/12/30 03:54:27;;;;;;;3.85;1.63;;;5.40;99.90;;;;;;5031331;28;20317;-83
2020/12/30 03:56:53;;;;;;;4.32;1.83;;;5.50;99.90;;;;;;5025460;28;20224;-82
2020/12/30 03:59:20;;;;;;;3.22;1.55;;;5.40;99.90;;;;;;5027497;28;20608;-84
2020/12/30 04:01:46;;;;;;;3.42;1.50;;;5.40;99.90;;;;;;5026662;28;20215;-84
2020/12/30 04:04:13;;;;;;;4.20;2.03;;;5.20;99.90;;;;;;5027535;28;20191;-83
2020/12/30 04:06:41;;;;;;;3.17;1.80;;;5.20;99.90;;;;;;5026916;28;20262;-84
2020/12/30 04:09:08;;;;;;;5.85;1.83;;;5.10;99.90;;;;;;5025991;28;20228;-83
2020/12/30 04:11:37;;;;;;;4.25;1.80;;;5.00;99.90;;;;;;5024788;28;20261;-81
2020/12/30 04:14:04;;;;;;;5.47;2.15;;;5.00;99.90;;;;;;5025875;28;20200;-83
2020/12/30 04:16:31;;;;;;;3.78;1.58;;;5.00;99.90;;;;;;5035479;28;20298;-82
2020/12/30 04:18:57;;;;;;;4.00;1.90;;;4.90;99.90;;;;;;5034885;28;20223;-82
2020/12/30 04:21:25;;;;;;;3.85;1.80;;;4.70;99.90;;;;;;5027316;28;20254;-82
2020/12/30 04:23:52;;;;;;;4.25;1.90;;;4.70;99.90;;;;;;5027122;28;20208;-82
2020/12/30 04:26:20;;;;;;;4.03;1.50;;;4.70;99.90;;;;;;5027939;28;20606;-82
2020/12/30 04:28:47;;;;;;;3.60;2.08;;;4.90;99.90;;;;;;5018827;28;20217;-82
2020/12/30 04:31:16;;;;;;;4.65;2.22;;;4.60;99.90;;;;;;5019332;28;20204;-82
2020/12/30 04:33:43;;;;;;;4.72;2.20;;;4.60;99.90;;;;;;5028539;28;20238;-81
2020/12/30 04:36:09;;;;;;;4.28;1.67;;;4.70;99.90;;;;;;5019872;28;20243;-82
2020/12/30 04:38:37;;;;;;;3.83;1.73;;;4.80;99.90;;;;;;5025956;28;20231;-81
2020/12/30 04:41:05;;;;;;;4.10;1.88;;;4.70;99.90;;;;;;5027369;28;20204;-81
2020/12/30 04:43:35;;;;;;;4.93;2.05;;;4.80;99.90;;;;;;5016026;28;20287;-82
2020/12/30 04:46:03;;;;;;;2.90;1.50;;;4.70;99.90;;;;;;5015887;28;20200;-82
2020/12/30 04:48:32;;;;;;;2.92;1.70;;;4.30;99.90;;;;;;5014230;28;20219;-82
2020/12/30 04:50:59;;;;;;;4.10;1.60;;;4.40;99.90;;;;;;5003490;28;20693;-82
2020/12/30 04:53:26;;;;;;;3.80;1.70;;;4.50;99.90;;;;;;5015024;28;20303;-82
2020/12/30 04:55:53;;;;;;;2.90;1.63;;;4.50;99.90;;;;;;5016721;28;20656;-82
2020/12/30 04:58:20;;;;;;;3.55;1.85;;;4.50;99.90;;;;;;5019548;28;20211;-82
2020/12/30 05:00:48;;;;;;;3.38;1.52;;;4.70;99.90;;;;;;5016975;28;20429;-82
2020/12/30 05:03:15;;;;;;;3.58;1.88;;;4.50;99.90;;;;;;5014152;28;20210;-82
2020/12/30 05:05:42;;;;;;;4.40;1.95;;;4.50;99.90;;;;;;5015760;28;20204;-82
2020/12/30 05:08:11;;;;;;;7.20;2.97;;;4.60;99.90;;;;;;5013796;28;20217;-82
2020/12/30 05:10:40;;;;;;;3.88;2.08;;;4.60;99.90;;;;;;5014539;28;20239;-82
2020/12/30 05:13:08;;;;;;;3.97;1.58;;;4.80;99.90;;;;;;5018224;28;20234;-82
2020/12/30 05:15:35;;;;;;;4.75;1.70;;;4.50;99.90;;;;;;5019017;28;20246;-81
2020/12/30 05:18:04;;;;;;;4.03;2.42;;;4.80;99.90;;;;;;5019250;28;20211;-82
2020/12/30 05:20:35;;;;;;;4.35;1.90;;;4.60;99.90;;;;;;5014084;28;20224;-82
2020/12/30 05:23:03;;;;;;;4.25;1.83;;;4.90;99.90;;;;;;5021403;28;20284;-82
2020/12/30 05:25:30;;;;;;;3.90;1.63;;;4.70;99.90;;;;;;5028906;28;20213;-82
2020/12/30 05:27:58;;;;;;;5.05;2.25;;;4.80;99.90;;;;;;5027137;28;20222;-82
2020/12/30 05:30:24;;;;;;;4.15;1.80;;;5.00;99.90;;;;;;5029806;28;20224;-82
2020/12/30 05:32:53;;;;;;;3.50;1.80;;;4.80;99.90;;;;;;5026883;28;20208;-82
2020/12/30 05:35:21;;;;;;;8.63;1.95;;;4.70;99.90;;;;;;5007609;28;20278;-82
2020/12/30 05:37:48;;;;;;;4.97;2.10;;;4.80;99.90;;;;;;5005818;28;20299;-82
2020/12/30 05:40:22;;;;;;;3.95;1.60;;;4.70;99.90;;;;;;5024610;28;20231;-82
2020/12/30 05:42:50;;;;;;;5.22;2.20;;;4.50;99.90;;;;;;5025355;28;20223;-82
2020/12/30 05:45:24;;;;;;;6.25;2.45;;;4.50;99.90;;;;;;5024993;28;20196;-82
2020/12/30 05:47:51;;;;;;;6.45;1.63;;;4.80;99.90;;;;;;5026355;28;20245;-82
2020/12/30 05:50:26;;;;;;;4.05;1.83;;;4.70;99.90;;;;;;5025092;28;20224;-83
2020/12/30 05:52:53;;;;;;;4.40;1.60;;;4.70;99.90;;;;;;5025015;28;20207;-83
2020/12/30 05:55:25;;;;;;;3.60;1.85;;;5.00;99.90;;;;;;5025322;28;20871;-83
2020/12/30 05:57:53;;;;;;;5.60;1.85;;;4.90;99.90;;;;;;5024802;28;20212;-83
2020/12/30 06:00:20;;;;;;;4.30;2.10;;;5.00;99.90;;;;;;5027604;28;20234;-83
2020/12/30 06:02:48;;;;;;;4.13;1.80;;;4.90;99.90;;;;;;5026053;28;20305;-83
2020/12/30 06:05:16;;;;;;;6.25;2.00;;;4.90;99.90;;;;;;5025677;28;20239;-83
2020/12/30 06:07:45;;;;;;;7.45;1.88;;;4.90;99.90;;;;;;5027120;28;20314;-82
2020/12/30 06:10:13;;;;;;;5.90;2.13;;;4.90;99.90;;;;;;5032346;28;20207;-82
2020/12/30 06:12:50;;;;;;;4.45;1.83;;;5.00;99.90;;;;;;5033241;28;20256;-83
2020/12/30 06:15:22;;;;;;;4.68;1.95;;;5.00;99.90;;;;;;5033039;28;20223;-82
2020/12/30 06:17:57;;;;;;;5.15;1.60;;;5.20;99.90;;;;;;5032214;28;20238;-83
2020/12/30 06:20:30;;;;;;;4.30;1.67;;;5.10;99.90;;;;;;5026145;28;20235;-83
2020/12/30 06:23:00;;;;;;;4.10;1.45;;;5.30;99.90;;;;;;5026358;28;20262;-83
2020/12/30 06:25:27;;;;;;;4.18;1.40;;;5.10;99.90;;;;;;5024916;28;20251;-83
2020/12/30 06:27:54;;;;;;;4.90;1.80;;;5.00;99.90;;;;;;5025035;28;20208;-83
2020/12/30 06:30:22;;;;;;;4.78;1.90;;;4.90;99.90;;;;;;5027205;28;20219;-83
2020/12/30 06:32:49;;;;;;;4.15;2.03;;;5.00;99.90;;;;;;5027169;28;20211;-83
2020/12/30 06:35:25;;;;;;;3.95;1.63;;;5.00;99.90;;;;;;5025197;28;20295;-83
2020/12/30 06:38:18;;;;;;;5.60;1.67;;;4.90;99.90;;;;;;5023652;28;20207;-83
2020/12/30 06:40:53;;;;;;;8.30;2.10;;;5.00;99.90;;;;;;5011793;28;20951;-83
2020/12/30 06:43:39;;;;;;;7.03;2.15;;;4.80;99.90;;;;;;5012983;28;20203;-82
2020/12/30 06:46:06;;;;;;;3.90;1.90;;;5.00;99.90;;;;;;5012528;28;20196;-83
2020/12/30 06:48:53;;;;;;;4.35;1.75;;;5.00;99.90;;;;;;5011091;28;20200;-81
2020/12/30 06:51:20;;;;;;;5.30;2.40;;;5.00;99.90;;;;;;5011527;28;20238;-83
2020/12/30 06:53:51;;;;;;;4.25;1.85;;;4.80;99.90;;;;;;5011539;28;20213;-82
2020/12/30 06:56:36;;;;;;;3.50;1.85;;;4.90;99.90;;;;;;5011057;28;20224;-82
2020/12/30 06:59:02;;;;;;;3.50;1.92;;;4.80;99.90;;;;;;5013187;28;20251;-83
2020/12/30 07:01:29;;;;;;;4.70;2.00;;;4.70;99.90;;;;;;5013063;28;20771;-80
2020/12/30 07:04:08;;;;;;;5.32;2.05;;;4.80;99.90;;;;;;5012050;28;20203;-83
2020/12/30 07:06:35;;;;;;;3.80;2.00;;;4.80;99.90;;;;;;5011662;28;20191;-83
2020/12/30 07:09:05;;;;;;;6.03;2.38;;;4.80;99.90;;;;;;5010817;28;20773;-83
2020/12/30 07:11:49;;;;;;;6.43;2.80;;;4.80;99.90;;;;;;5010768;28;20223;-83
2020/12/30 07:14:17;;;;;;;4.75;2.10;;;4.90;99.90;;;;;;5011180;28;20236;-83
2020/12/30 07:16:52;;;;;;;4.22;2.00;;;4.90;99.90;;;;;;4998886;28;20228;-85
2020/12/30 07:19:21;;;;;;;4.00;2.38;;;5.00;99.90;;;;;;5011361;28;20239;-83
2020/12/30 07:22:03;;;;;;;4.60;2.10;;;5.00;99.90;;;;;;5011685;28;20257;-83
2020/12/30 07:24:33;;;;;;;4.25;2.40;;;4.90;99.90;;;;;;5011293;28;20201;-89
2020/12/30 07:27:02;;;;;;;6.10;2.20;;;4.90;99.90;;;;;;5013523;28;20219;-83
2020/12/30 07:29:28;;;;;;;6.28;2.30;;;4.80;99.90;;;;;;5015270;28;20235;-83
2020/12/30 07:31:58;;;;;;;5.05;1.85;;;5.00;99.90;;;;;;5020590;28;20638;-82
2020/12/30 07:34:26;;;;;;;4.78;2.00;;;4.90;99.90;;;;;;5024334;28;20196;-82
2020/12/30 07:36:54;;;;;;;3.35;2.25;;;5.10;99.90;;;;;;5014295;28;20241;-77
2020/12/30 07:39:26;;;;;;;4.75;1.70;;;5.20;99.90;;;;;;5012561;28;20227;-77
2020/12/30 07:41:53;;;;;;;4.80;2.20;;;4.80;99.90;;;;;;5012810;28;20204;-76
2020/12/30 07:44:20;;;;;;;5.20;2.05;;;5.10;99.90;;;;;;5013567;28;20211;-78
2020/12/30 07:46:47;;;;;;;4.43;1.95;;;5.10;99.90;;;;;;5020553;28;20215;-80
2020/12/30 07:49:15;;;;;;;7.03;2.28;;;4.80;99.90;;;;;;5034935;28;20220;-80
2020/12/30 07:51:50;;;;;;;3.47;2.00;;;5.00;99.90;;;;;;5026019;28;20222;-81
2020/12/30 07:54:17;;;;;;;4.30;2.40;;;5.20;99.90;;;;;;5034914;28;20996;-81
2020/12/30 07:56:47;;;;;;;3.63;2.22;;;5.20;99.90;;;;;;5035402;28;20219;-82
2020/12/30 07:59:22;;;;;;;4.07;2.50;;;5.10;99.90;;;;;;5020010;28;20580;-80
2020/12/30 08:02:00;;;;;;;3.45;2.10;;;5.10;99.90;;;;;;5014474;28;20581;-78
2020/12/30 08:04:27;;;;;;;3.85;1.98;;;5.10;99.90;;;;;;5014665;28;20199;-81
2020/12/30 08:06:55;;;;;;;3.40;1.92;;;5.00;99.90;;;;;;5013064;28;20769;-84
2020/12/30 08:09:26;;;;;;;4.18;2.13;;;5.10;99.90;;;;;;5028997;28;20207;-81
2020/12/30 08:11:53;;;;;;;4.10;2.15;;;5.00;99.90;;;;;;5019625;28;20199;-83
2020/12/30 08:14:22;;;;;;;6.25;2.17;;;5.30;99.90;;;;;;5015605;28;20219;-83
2020/12/30 08:16:54;;;;;;;5.82;1.95;;;5.10;99.90;;;;;;5015879;28;20334;-83
2020/12/30 08:19:34;;;;;;;3.47;1.95;;;5.50;99.90;;;;;;5020581;28;20243;-83
2020/12/30 08:22:03;;;;;;;4.95;2.00;;;5.30;99.90;;;;;;5015334;28;20214;-82
2020/12/30 08:24:30;;;;;;;3.17;1.75;;;5.50;99.90;;;;;;5014758;28;20211;-82
2020/12/30 08:26:57;;;;;;;5.45;2.20;;;5.30;99.90;;;;;;5014861;28;20220;-81
2020/12/30 08:29:29;;;;;;;3.30;1.60;;;5.50;99.90;;;;;;5018926;28;20224;-81
2020/12/30 08:31:58;;;;;;;4.20;2.05;;;5.50;99.90;;;;;;5017355;28;20258;-83
2020/12/30 08:34:29;;;;;;;6.13;2.95;;;5.60;99.90;;;;;;5015587;28;20200;-83
2020/12/30 08:37:05;;;;;;;5.35;2.05;;;5.50;99.90;;;;;;5015859;28;20243;-84
2020/12/30 08:39:36;;;;;;;2.80;1.45;;;5.40;99.90;;;;;;4996267;28;20239;-81
2020/12/30 08:42:08;;;;;;;3.67;1.70;;;5.60;99.90;;;;;;4995709;28;20539;-83
2020/12/30 08:44:44;;;;;;;5.55;1.85;;;5.70;99.90;;;;;;5014012;28;20200;-83
2020/12/30 08:47:18;;;;;;;4.05;1.70;;;5.60;99.90;;;;;;5014394;28;20203;-84
2020/12/30 08:49:46;;;;;;;6.15;2.30;;;5.90;99.90;;;;;;5013853;28;20239;-83
2020/12/30 08:52:19;;;;;;;4.00;2.00;;;5.80;99.90;;;;;;5014308;28;20200;-82
2020/12/30 08:55:00;;;;;;;3.58;1.75;;;5.70;99.90;;;;;;5005648;28;20204;-85
2020/12/30 08:57:27;;;;;;;4.38;1.73;;;5.80;99.90;;;;;;5001130;28;20224;-84
2020/12/30 09:00:10;;;;;;;3.47;1.50;;;5.90;99.90;;;;;;5019952;28;20224;-83
2020/12/30 09:02:37;;;;;;;4.63;1.85;;;5.70;99.90;;;;;;5017224;28;20215;-78
2020/12/30 09:05:04;;;;;;;4.18;1.85;;;5.90;99.90;;;;;;5008110;28;20264;-83
2020/12/30 09:07:31;;;;;;;3.83;1.75;;;6.00;99.90;;;;;;5012472;28;20235;-80
2020/12/30 09:10:03;;;;;;;6.13;1.90;;;6.00;99.90;;;;;;5030378;28;20314;-81
2020/12/30 09:12:29;;;;;;;10.88;4.75;;;6.10;99.90;;;;;;5025717;28;20196;-82
2020/12/30 09:14:57;;;;;;;6.65;1.83;;;5.90;99.90;;;;;;5017645;28;20200;-79
2020/12/30 09:17:23;;;;;;;3.53;2.03;;;6.00;99.90;;;;;;5016034;28;20231;-80
2020/12/30 09:19:52;;;;;;;3.05;1.40;;;6.20;99.90;;;;;;5008741;28;20243;-79
2020/12/30 09:22:18;;;;;;;3.38;1.45;;;6.10;99.90;;;;;;4998159;28;20295;-80
2020/12/30 09:24:45;;;;;;;4.22;1.70;;;5.90;99.90;;;;;;5015925;28;20208;-78
2020/12/30 09:27:20;;;;;;;5.57;1.60;;;6.00;99.90;;;;;;5015825;28;20581;-80
2020/12/30 09:30:11;;;;;;;4.80;1.55;;;6.10;99.90;;;;;;5010733;28;20231;-80
2020/12/30 09:32:38;;;;;;;3.10;1.60;;;6.10;99.90;;;;;;5005839;28;20262;-83
2020/12/30 09:35:06;;;;;;;4.00;1.60;;;6.20;99.90;;;;;;5021120;28;20210;-83
2020/12/30 09:37:32;;;;;;;3.22;1.50;;;6.30;99.90;;;;;;5019006;28;20204;-83
2020/12/30 09:40:07;;;;;;;4.75;1.60;;;6.20;99.90;;;;;;5022045;28;20239;-82
2020/12/30 09:42:34;;;;;;;3.58;1.50;;;6.20;99.90;;;;;;5021807;28;20195;-83
2020/12/30 09:45:02;;;;;;;6.20;1.58;;;6.50;99.90;;;;;;5019947;28;20239;-82
2020/12/30 09:47:29;;;;;;;3.75;1.50;;;6.30;99.90;;;;;;5014436;28;20215;-83
2020/12/30 09:49:55;;;;;;;5.18;1.60;;;6.40;99.90;;;;;;5014915;28;20327;-85
2020/12/30 09:52:22;;;;;;;3.70;1.80;;;6.60;99.90;;;;;;5017123;28;20280;-83
2020/12/30 09:54:49;;;;;;;6.13;1.80;;;6.70;99.90;;;;;;5002123;28;20258;-85
2020/12/30 09:57:15;;;;;;;5.20;1.70;;;6.50;99.90;;;;;;5004303;28;20217;-84
2020/12/30 09:59:43;;;;;;;3.85;1.58;;;6.70;99.90;;;;;;5018786;28;20220;-83
2020/12/30 10:02:10;;;;;;;4.78;1.77;;;6.70;99.90;;;;;;5021396;28;20219;-78
2020/12/30 10:04:39;;;;;;;3.60;1.83;;;6.50;99.90;;;;;;4998273;28;20209;-78
2020/12/30 10:07:06;;;;;;;4.45;1.88;;;6.40;99.90;;;;;;4995237;28;20212;-78
2020/12/30 10:09:32;;;;;;;4.47;1.70;;;6.60;99.90;;;;;;5014235;28;20285;-83
2020/12/30 10:11:59;;;;;;;3.47;1.23;;;6.50;99.90;;;;;;5007822;28;20200;-78
2020/12/30 10:14:25;;;;;;;3.22;1.20;;;6.60;99.90;;;;;;5001855;28;20246;-77
2020/12/30 10:16:52;;;;;;;5.15;1.70;;;6.70;99.90;;;;;;5011267;28;20224;-78
2020/12/30 10:19:18;;;;;;;5.35;1.95;;;6.80;99.90;;;;;;5017488;28;20250;-83
2020/12/30 10:21:46;;;;;;;3.05;1.42;;;6.70;99.90;;;;;;5011635;28;20548;-83
2020/12/30 10:24:12;;;;;;;4.78;1.60;;;6.50;99.90;;;;;;4997880;28;20209;-83
2020/12/30 10:26:39;;;;;;;4.03;1.13;;;6.60;99.90;;;;;;5013939;28;20208;-83
2020/12/30 10:29:06;;;;;;;4.43;2.05;;;6.80;99.90;;;;;;4999611;28;20220;-85
2020/12/30 10:31:32;;;;;;;5.97;1.63;;;6.70;99.90;;;;;;4999778;28;20215;-82
2020/12/30 10:33:59;;;;;;;3.72;1.83;;;6.70;99.90;;;;;;5015967;28;20339;-84
2020/12/30 10:36:30;;;;;;;3.85;1.70;;;6.70;99.90;;;;;;5005552;28;20319;-84
2020/12/30 10:38:58;;;;;;;5.20;2.00;;;6.80;99.90;;;;;;5004251;28;20894;-83
2020/12/30 10:41:25;;;;;;;4.45;1.70;;;6.80;99.90;;;;;;5011452;28;20261;-84
2020/12/30 10:43:51;;;;;;;8.70;1.90;;;7.00;99.90;;;;;;5017943;28;20629;-83
2020/12/30 10:46:19;;;;;;;4.88;1.55;;;6.90;99.90;;;;;;5018714;28;20605;-78
2020/12/30 10:48:46;;;;;;;3.67;1.70;;;7.00;99.90;;;;;;5015078;28;20208;-78
2020/12/30 10:51:14;;;;;;;8.57;2.13;;;7.00;99.90;;;;;;5007159;28;20291;-80
2020/12/30 10:53:41;;;;;;;5.53;1.52;;;7.20;99.90;;;;;;4994840;28;20212;-78
2020/12/30 10:56:09;;;;;;;3.13;1.15;;;7.20;99.90;;;;;;4998099;28;20680;-77
2020/12/30 10:58:36;;;;;;;4.07;1.45;;;7.30;99.90;;;;;;4995511;28;20212;-76
2020/12/30 11:01:07;;;;;;;3.80;1.30;;;7.20;99.90;;;;;;5015254;28;20200;-77
2020/12/30 11:03:34;;;;;;;5.20;1.70;;;7.30;99.90;;;;;;5014545;28;20235;-77
2020/12/30 11:06:01;;;;;;;3.75;1.67;;;7.10;99.90;;;;;;5006727;28;20212;-78
2020/12/30 11:08:28;;;;;;;4.25;1.30;;;7.40;99.90;;;;;;5001567;28;20204;-77
2020/12/30 11:10:57;;;;;;;3.75;1.73;;;7.40;99.90;;;;;;5001130;28;20262;-77
2020/12/30 11:13:24;;;;;;;6.63;1.70;;;7.30;99.90;;;;;;5017004;28;20203;-77
2020/12/30 11:15:51;;;;;;;5.13;1.67;;;7.60;99.90;;;;;;5013051;28;20227;-77
2020/12/30 11:18:17;;;;;;;4.47;1.50;;;7.20;99.90;;;;;;5013397;28;20235;-77
2020/12/30 11:20:44;;;;;;;3.20;1.30;;;7.40;99.90;;;;;;5028937;28;20271;-82
2020/12/30 11:23:11;;;;;;;5.20;2.15;;;7.30;99.90;;;;;;5029240;28;20299;-84
2020/12/30 11:25:39;;;;;;;3.28;1.45;;;7.40;99.90;;;;;;5017067;28;20583;-85
2020/12/30 11:28:06;;;;;;;3.47;1.48;;;7.50;99.90;;;;;;5018675;28;20212;-84
2020/12/30 11:30:33;;;;;;;4.10;1.60;;;7.50;99.90;;;;;;5011425;28;20221;-82
2020/12/30 11:33:00;;;;;;;5.05;1.95;;;7.40;99.90;;;;;;5013418;28;20215;-81
2020/12/30 11:35:27;;;;;;;6.10;2.10;;;7.40;99.90;;;;;;5015788;28;20200;-79
2020/12/30 11:37:53;;;;;;;5.18;2.17;;;7.60;99.90;;;;;;5016576;28;20513;-79
2020/12/30 11:40:20;;;;;;;7.60;3.50;;;7.70;99.90;;;;;;5017861;28;20224;-79
2020/12/30 11:42:46;;;;;;;4.95;1.90;;;7.80;99.90;;;;;;5015161;28;20228;-88
2020/12/30 11:45:13;;;;;;;3.15;1.25;;;7.80;99.90;;;;;;5016690;28;20250;-79
2020/12/30 11:47:41;;;;;;;2.92;1.20;;;7.50;99.90;;;;;;5018382;28;20674;-78
2020/12/30 11:50:08;;;;;;;3.55;1.45;;;7.80;99.90;;;;;;5006909;28;20224;-78
2020/12/30 11:52:34;;;;;;;8.07;1.70;;;7.70;99.90;;;;;;4997960;28;20243;-76
2020/12/30 11:55:01;;;;;;;4.40;1.48;;;7.80;99.90;;;;;;5012367;28;20573;-77
2020/12/30 11:57:28;;;;;;;5.43;1.58;;;7.60;99.90;;;;;;5003466;28;20236;-78
2020/12/30 11:59:55;;;;;;;4.68;1.10;;;7.70;99.90;;;;;;5008271;28;20271;-78
2020/12/30 12:02:22;;;;;;;5.75;1.30;;;7.70;99.90;;;;;;4993584;28;20212;-78
2020/12/30 12:04:49;;;;;;;3.20;1.30;;;7.90;99.90;;;;;;5005082;28;20277;-78
2020/12/30 12:07:16;;;;;;;4.30;1.08;;;7.90;99.90;;;;;;5010777;28;20192;-78
2020/12/30 12:09:42;;;;;;;3.10;1.10;;;8.00;99.90;;;;;;4993439;28;20229;-82
2020/12/30 12:12:09;;;;;;;3.95;1.70;;;7.70;99.90;;;;;;5003653;28;20208;-76
2020/12/30 12:14:35;;;;;;;3.90;1.50;;;7.90;99.90;;;;;;5011989;28;20258;-77
2020/12/30 12:17:02;;;;;;;4.28;1.33;;;7.80;99.90;;;;;;5010681;28;20224;-77
2020/12/30 12:19:28;;;;;;;3.10;1.30;;;7.50;99.90;;;;;;4993616;28;20236;-77
2020/12/30 12:21:56;;;;;;;3.95;2.00;;;7.80;99.90;;;;;;5003107;28;20631;-80
2020/12/30 12:24:22;;;;;;;3.58;1.50;;;7.50;99.90;;;;;;5010698;28;20208;-85
2020/12/30 12:26:50;;;;;;;3.47;1.52;;;7.50;99.90;;;;;;5009952;28;20204;-86
2020/12/30 12:29:41;;;;;;;4.75;2.00;;;7.70;99.90;;;;;;5020372;28;20223;-86
2020/12/30 12:32:09;;;;;;;3.10;1.67;;;7.70;99.90;;;;;;5016021;28;20258;-86
2020/12/30 12:34:38;;;;;;;4.03;2.00;;;7.40;99.90;;;;;;5019185;28;20201;-84
2020/12/30 12:37:07;;;;;;;4.45;1.80;;;7.60;99.90;;;;;;5014130;28;20221;-86
2020/12/30 12:39:34;;;;;;;7.10;2.20;;;7.40;99.90;;;;;;5006064;28;20235;-83
2020/12/30 12:42:01;;;;;;;7.18;2.80;;;7.70;99.90;;;;;;5011096;28;20204;-83
2020/12/30 12:44:28;;;;;;;4.57;1.98;;;7.40;99.90;;;;;;5007179;28;20697;-83
2020/12/30 12:46:55;;;;;;;8.00;2.50;;;7.40;99.90;;;;;;5011464;28;20215;-86
2020/12/30 12:49:22;;;;;;;4.93;2.05;;;7.80;99.90;;;;;;5002849;28;20235;-85
2020/12/30 12:51:49;;;;;;;4.13;1.80;;;7.70;99.90;;;;;;5002597;28;20243;-85
2020/12/30 12:54:17;;;;;;;4.50;2.17;;;7.50;99.90;;;;;;5008019;28;20204;-82
2020/12/30 12:56:44;;;;;;;4.80;2.63;;;7.60;99.90;;;;;;5011903;28;20389;-85
2020/12/30 12:59:11;;;;;;;5.30;2.30;;;7.50;99.90;;;;;;5015574;28;20232;-83
2020/12/30 13:01:45;;;;;;;3.92;2.00;;;7.70;99.90;;;;;;4997145;28;20196;-88
2020/12/30 13:04:12;;;;;;;4.43;2.30;;;7.40;99.90;;;;;;5001651;28;20257;-85